Time;durP1;ratioP1;P1;durP2;ratioP2;P2;SDS_P1;SDS_P2;PMS_P1;PMS_P2;Temp;Humidity;BMP_temperature;BMP_pressure;BME280_temperature;BME280_humidity;BME280_pressure;Samples;Min_cycle;Max_cycle;Signal;HPM_P1;HPM_P2
2023/04/29 00:00:38;;;;;;;0.80;0.80;;;;;;;3.05;98.60;98992.72;6212900;23;20482;-81
2023/04/29 00:03:05;;;;;;;0.80;0.80;;;;;;;2.92;98.32;98996.16;6213061;23;20021;-80
2023/04/29 00:05:33;;;;;;;0.90;0.90;;;;;;;2.87;98.29;98992.44;6186074;23;20077;-80
2023/04/29 00:08:00;;;;;;;0.70;0.70;;;;;;;2.91;98.42;98994.50;6161411;23;20119;-81
2023/04/29 00:10:27;;;;;;;0.70;0.70;;;;;;;2.87;98.79;99001.25;6213726;23;20067;-80
2023/04/29 00:12:55;;;;;;;0.90;0.90;;;;;;;2.80;99.07;98979.84;6186217;23;20020;-81
2023/04/29 00:15:22;;;;;;;0.80;0.80;;;;;;;2.79;99.25;98972.06;6213869;23;20020;-81
2023/04/29 00:17:49;;;;;;;0.70;0.70;;;;;;;2.78;99.48;98975.75;6212584;23;20028;-80
2023/04/29 00:20:16;;;;;;;0.70;0.70;;;;;;;2.86;99.94;98972.94;6212389;23;20027;-80
2023/04/29 00:22:44;;;;;;;0.80;0.80;;;;;;;2.91;100.00;98965.19;6212992;23;20020;-81
2023/04/29 00:25:11;;;;;;;0.80;0.80;;;;;;;2.92;100.00;98966.81;6212843;23;20083;-81
2023/04/29 00:27:50;;;;;;;0.90;0.90;;;;;;;2.92;100.00;98966.00;6187195;23;20021;-80
2023/04/29 00:30:33;;;;;;;0.80;0.80;;;;;;;2.87;100.00;98979.09;6053737;23;20027;-80
2023/04/29 00:33:01;;;;;;;0.90;0.90;;;;;;;2.86;100.00;98978.28;6191947;23;20029;-80
2023/04/29 00:35:28;;;;;;;0.70;0.70;;;;;;;2.81;100.00;98970.00;6217207;23;20024;-80
2023/04/29 00:37:55;;;;;;;0.70;0.70;;;;;;;2.87;100.00;98963.91;6212400;23;20032;-80
2023/04/29 00:40:28;;;;;;;0.80;0.80;;;;;;;2.74;100.00;98958.50;6212589;23;20024;-80
2023/04/29 00:42:56;;;;;;;0.80;0.80;;;;;;;2.69;100.00;98953.75;6186330;23;20017;-80
2023/04/29 00:45:24;;;;;;;0.88;0.88;;;;;;;2.60;100.00;98955.72;6186179;23;20021;-81
2023/04/29 00:47:51;;;;;;;0.70;0.70;;;;;;;2.54;100.00;98953.84;6125185;23;20124;-81
2023/04/29 00:50:19;;;;;;;0.90;0.90;;;;;;;2.52;99.70;98960.41;6149924;23;20025;-80
2023/04/29 00:52:47;;;;;;;0.70;0.70;;;;;;;2.51;99.75;98959.59;6101372;23;20370;-81
2023/04/29 00:55:15;;;;;;;0.90;0.90;;;;;;;2.56;99.96;98961.66;6149771;23;20025;-81
2023/04/29 00:57:42;;;;;;;0.80;0.80;;;;;;;2.49;99.63;98950.94;6125398;23;20104;-81
2023/04/29 01:00:13;;;;;;;0.80;0.80;;;;;;;2.50;99.62;98957.91;6124940;23;20136;-80
2023/04/29 01:02:45;;;;;;;0.80;0.80;;;;;;;2.55;99.78;98962.66;6149991;23;20120;-79
2023/04/29 01:05:14;;;;;;;0.80;0.80;;;;;;;2.53;99.22;98957.56;6149645;23;20017;-79
2023/04/29 01:08:12;;;;;;;0.80;0.80;;;;;;;2.52;99.19;98955.88;6126016;23;20057;-80
2023/04/29 01:10:54;;;;;;;0.80;0.80;;;;;;;2.57;99.37;98969.44;6155657;23;20083;-80
2023/04/29 01:13:36;;;;;;;0.80;0.80;;;;;;;2.55;99.02;98966.16;6154688;23;20025;-81
2023/04/29 01:16:20;;;;;;;0.70;0.70;;;;;;;2.56;99.11;98969.66;6155766;23;20025;-80
2023/04/29 01:18:54;;;;;;;0.80;0.80;;;;;;;2.58;99.00;98964.94;6194289;23;20112;-80
2023/04/29 01:21:26;;;;;;;0.80;0.80;;;;;;;2.54;99.18;98967.19;6211141;23;20032;-81
2023/04/29 01:23:57;;;;;;;0.70;0.70;;;;;;;2.53;99.15;98965.53;6212602;23;20020;-80
2023/04/29 01:26:31;;;;;;;0.80;0.80;;;;;;;2.60;99.25;98958.41;6211079;23;20025;-81
2023/04/29 01:29:26;;;;;;;0.70;0.70;;;;;;;2.69;99.57;98960.94;6209882;23;20088;-80
2023/04/29 01:32:10;;;;;;;0.82;0.82;;;;;;;2.70;99.77;98957.25;6209625;23;20025;-79
2023/04/29 01:34:41;;;;;;;0.80;0.80;;;;;;;2.73;99.61;98956.84;6161016;23;20027;-81
2023/04/29 01:37:20;;;;;;;0.80;0.80;;;;;;;2.72;99.69;98947.22;6209787;23;20031;-81
2023/04/29 01:40:25;;;;;;;0.90;0.90;;;;;;;2.62;99.44;98952.06;6185865;23;20360;-80
2023/04/29 01:43:07;;;;;;;0.70;0.70;;;;;;;2.53;99.50;98960.22;6209419;23;20020;-79
2023/04/29 01:45:35;;;;;;;0.80;0.80;;;;;;;2.53;99.47;98954.03;6185393;23;20020;-81
2023/04/29 01:48:04;;;;;;;0.80;0.80;;;;;;;2.43;99.16;98950.88;6209784;23;20094;-81
2023/04/29 01:50:31;;;;;;;0.80;0.80;;;;;;;2.41;99.10;98964.41;6185178;23;20325;-80
2023/04/29 01:53:11;;;;;;;0.80;0.80;;;;;;;2.36;99.30;98961.50;6209714;23;20029;-80
2023/04/29 01:55:38;;;;;;;0.80;0.80;;;;;;;2.46;99.61;98962.00;6210256;23;20471;-80
2023/04/29 01:58:13;;;;;;;;;;;;;;;2.46;99.57;98972.66;6210956;23;20423;-79
2023/04/29 02:00:59;;;;;;;0.80;0.80;;;;;;;2.32;99.54;98973.56;6211529;23;20306;-80
2023/04/29 02:03:29;;;;;;;1.00;1.00;;;;;;;2.37;99.64;98981.78;6210470;23;20024;-80
2023/04/29 02:05:58;;;;;;;0.80;0.80;;;;;;;2.45;99.66;98971.00;6209758;23;20486;-79
2023/04/29 02:08:25;;;;;;;0.80;0.80;;;;;;;2.56;100.00;98972.31;6210379;23;20048;-80
2023/04/29 02:10:54;;;;;;;0.80;0.80;;;;;;;2.64;99.83;98974.03;6210577;23;20466;-80
2023/04/29 02:13:33;;;;;;;0.80;0.80;;;;;;;2.57;100.00;98969.44;6210667;23;20471;-80
2023/04/29 02:16:14;;;;;;;0.70;0.70;;;;;;;2.57;100.00;98971.28;6210093;23;20605;-80
2023/04/29 02:18:46;;;;;;;0.80;0.80;;;;;;;2.48;99.86;98973.28;6187009;23;20020;-79
2023/04/29 02:21:13;;;;;;;0.90;0.90;;;;;;;2.41;100.00;98980.41;6211874;23;20128;-80
2023/04/29 02:23:41;;;;;;;0.80;0.80;;;;;;;2.45;100.00;98978.97;6210647;23;20028;-79
2023/04/29 02:26:09;;;;;;;0.90;0.90;;;;;;;2.48;100.00;98975.09;6185074;23;20024;-80
2023/04/29 02:28:37;;;;;;;0.80;0.80;;;;;;;2.64;100.00;98987.34;6187338;23;20099;-79
2023/04/29 02:31:04;;;;;;;0.70;0.70;;;;;;;2.62;100.00;98982.19;6213654;23;20452;-80
2023/04/29 02:33:33;;;;;;;0.90;0.90;;;;;;;2.53;100.00;98986.00;6213851;23;20020;-79
2023/04/29 02:36:00;;;;;;;0.80;0.80;;;;;;;2.56;100.00;98999.78;6212393;23;20024;-79
2023/04/29 02:38:30;;;;;;;0.80;0.80;;;;;;;2.58;100.00;99003.09;6213755;23;20024;-79
2023/04/29 02:41:00;;;;;;;0.90;0.90;;;;;;;2.57;100.00;99005.94;6212342;23;20099;-80
2023/04/29 02:43:29;;;;;;;0.80;0.80;;;;;;;2.54;100.00;99015.13;6214016;23;20020;-80
2023/04/29 02:45:59;;;;;;;0.70;0.70;;;;;;;2.52;100.00;99009.16;6212026;23;20100;-80
2023/04/29 02:48:27;;;;;;;0.80;0.80;;;;;;;2.51;100.00;99018.19;6212510;23;20028;-80
2023/04/29 02:50:57;;;;;;;0.80;0.80;;;;;;;2.51;100.00;99026.19;6212388;23;20024;-79
2023/04/29 02:53:24;;;;;;;0.90;0.90;;;;;;;2.47;100.00;99024.09;6213839;23;20479;-80
2023/04/29 02:55:52;;;;;;;0.70;0.70;;;;;;;2.45;100.00;99034.91;6212053;23;20032;-80
2023/04/29 02:58:19;;;;;;;0.80;0.80;;;;;;;2.51;100.00;99038.69;6213158;23;20028;-80
2023/04/29 03:00:46;;;;;;;0.90;0.90;;;;;;;2.50;100.00;99037.03;6212285;23;20024;-80
2023/04/29 03:03:13;;;;;;;0.70;0.70;;;;;;;2.53;100.00;99045.47;6211913;23;20462;-78
2023/04/29 03:05:40;;;;;;;0.80;0.80;;;;;;;2.54;100.00;99054.28;6213931;23;20021;-80
2023/04/29 03:08:09;;;;;;;0.80;0.80;;;;;;;2.52;100.00;99053.66;6211567;23;20464;-79
2023/04/29 03:10:38;;;;;;;0.80;0.80;;;;;;;2.52;100.00;99057.13;6211574;23;20029;-79
2023/04/29 03:13:08;;;;;;;0.70;0.70;;;;;;;2.52;100.00;99066.97;6161981;23;20055;-80
2023/04/29 03:15:40;;;;;;;0.80;0.80;;;;;;;2.54;100.00;99065.75;6187366;23;20024;-79
2023/04/29 03:18:08;;;;;;;0.90;0.90;;;;;;;2.59;100.00;99068.66;6186277;23;20028;-80
2023/04/29 03:20:35;;;;;;;0.70;0.70;;;;;;;2.64;100.00;99077.94;6187059;23;20024;-80
2023/04/29 03:23:04;;;;;;;0.80;0.80;;;;;;;2.65;100.00;99083.06;6186471;23;20025;-82
2023/04/29 03:25:33;;;;;;;0.80;0.80;;;;;;;2.63;100.00;99079.75;6186749;23;20024;-80
2023/04/29 03:28:00;;;;;;;0.80;0.80;;;;;;;2.67;100.00;99094.34;6213396;23;20103;-80
2023/04/29 03:30:29;;;;;;;0.80;0.80;;;;;;;2.58;100.00;99088.34;6161850;23;20132;-79
2023/04/29 03:32:57;;;;;;;0.70;0.70;;;;;;;2.51;100.00;99095.44;6186764;23;20455;-80
2023/04/29 03:35:26;;;;;;;0.80;0.80;;;;;;;2.46;100.00;99089.88;6213335;23;20020;-80
2023/04/29 03:38:21;;;;;;;0.80;0.80;;;;;;;2.57;100.00;99104.50;6167709;23;20024;-80
2023/04/29 03:40:48;;;;;;;0.80;0.80;;;;;;;2.55;100.00;99103.88;6187799;23;20025;-80
2023/04/29 03:43:19;;;;;;;0.80;0.80;;;;;;;2.59;99.86;99100.66;6187929;23;20027;-80
2023/04/29 03:45:46;;;;;;;0.90;0.90;;;;;;;2.53;100.00;99100.56;6162883;23;20024;-80
2023/04/29 03:48:18;;;;;;;0.77;0.77;;;;;;;2.45;99.74;99103.38;6186349;23;20031;-80
2023/04/29 03:50:46;;;;;;;0.88;0.88;;;;;;;2.44;99.65;99102.53;6186778;23;20020;-80
2023/04/29 03:53:13;;;;;;;0.85;0.85;;;;;;;2.45;99.69;99104.19;6186441;23;20025;-79
2023/04/29 03:55:40;;;;;;;0.90;0.90;;;;;;;2.36;99.52;99097.34;6161775;23;20103;-80
2023/04/29 03:58:09;;;;;;;0.80;0.80;;;;;;;2.24;98.78;99094.34;6212993;23;20103;-79
2023/04/29 04:00:36;;;;;;;0.90;0.90;;;;;;;2.17;99.04;99106.75;6186892;23;20020;-79
2023/04/29 04:03:08;;;;;;;0.80;0.80;;;;;;;2.30;99.25;99109.56;6186228;23;20020;-79
2023/04/29 04:05:36;;;;;;;0.80;0.80;;;;;;;2.37;98.94;99110.47;6186860;23;20026;-79
2023/04/29 04:08:08;;;;;;;0.80;0.80;;;;;;;2.31;99.39;99113.06;6211224;23;20017;-79
2023/04/29 04:10:35;;;;;;;0.80;0.80;;;;;;;2.38;99.33;99113.94;6212735;23;20495;-80
2023/04/29 04:13:10;;;;;;;0.90;0.90;;;;;;;2.31;98.90;99118.41;6186619;23;20032;-80
2023/04/29 04:15:37;;;;;;;0.85;0.85;;;;;;;2.33;98.97;99113.69;6186424;23;20067;-81
2023/04/29 04:18:05;;;;;;;0.80;0.80;;;;;;;2.44;98.96;99110.53;6161689;23;20024;-81
2023/04/29 04:20:32;;;;;;;0.90;0.90;;;;;;;2.51;98.90;99108.78;6187336;23;20112;-80
2023/04/29 04:22:59;;;;;;;0.80;0.80;;;;;;;2.45;98.77;99114.03;6186776;23;20025;-80
2023/04/29 04:25:29;;;;;;;0.90;0.90;;;;;;;2.50;98.68;99122.28;6161812;23;20025;-80
2023/04/29 04:28:06;;;;;;;0.90;0.90;;;;;;;2.53;98.59;99121.88;6186567;23;20082;-80
2023/04/29 04:30:56;;;;;;;0.80;0.80;;;;;;;2.49;98.26;99121.44;6166171;23;20071;-81
2023/04/29 04:33:24;;;;;;;0.90;0.90;;;;;;;2.63;98.21;99110.91;6186030;23;20103;-80
2023/04/29 04:35:55;;;;;;;0.90;0.90;;;;;;;2.68;97.86;99101.31;6186666;23;20099;-82
2023/04/29 04:38:24;;;;;;;0.90;0.90;;;;;;;2.71;97.69;99097.47;6161691;23;20035;-81
2023/04/29 04:40:52;;;;;;;0.80;0.80;;;;;;;2.70;97.23;99111.81;6186234;23;20029;-80
2023/04/29 04:43:32;;;;;;;0.90;0.90;;;;;;;2.70;97.22;99117.13;6186386;23;20032;-82
2023/04/29 04:46:09;;;;;;;0.80;0.80;;;;;;;2.66;96.69;99123.84;6160789;23;20036;-82
2023/04/29 04:48:40;;;;;;;0.80;0.80;;;;;;;2.75;96.50;99115.53;6186558;23;20020;-81
2023/04/29 04:51:10;;;;;;;0.80;0.80;;;;;;;2.87;96.56;99104.38;6160720;23;20467;-81
2023/04/29 04:53:38;;;;;;;0.90;0.90;;;;;;;2.87;96.14;99110.53;6186218;23;20075;-81
2023/04/29 04:56:11;;;;;;;0.90;0.90;;;;;;;2.99;96.20;99119.66;6186381;23;20024;-82
2023/04/29 04:58:38;;;;;;;0.90;0.90;;;;;;;3.09;95.89;99122.00;6186945;23;20036;-80
2023/04/29 05:01:05;;;;;;;0.82;0.82;;;;;;;3.11;95.61;99130.59;6160694;23;20025;-82
2023/04/29 05:03:32;;;;;;;0.90;0.90;;;;;;;3.00;95.04;99123.97;6161984;23;20452;-82
2023/04/29 05:06:00;;;;;;;0.90;0.90;;;;;;;3.11;95.20;99130.59;6186505;23;20024;-81
2023/04/29 05:08:30;;;;;;;0.80;0.80;;;;;;;3.18;94.49;99120.81;6182989;23;20020;-83
2023/04/29 05:10:59;;;;;;;0.80;0.80;;;;;;;3.14;94.00;99122.25;6185296;23;20031;-82
2023/04/29 05:13:27;;;;;;;0.88;0.88;;;;;;;3.31;93.70;99109.41;6206872;23;20020;-81
2023/04/29 05:15:54;;;;;;;0.80;0.80;;;;;;;3.41;93.47;99109.91;6181876;23;20024;-81
2023/04/29 05:18:28;;;;;;;0.80;0.80;;;;;;;3.51;92.98;99114.06;6183195;23;20035;-82
2023/04/29 05:20:55;;;;;;;0.80;0.80;;;;;;;3.44;91.71;99111.34;6205958;23;20100;-80
2023/04/29 05:23:22;;;;;;;0.80;0.80;;;;;;;3.36;91.26;99123.00;6206596;23;20028;-80
2023/04/29 05:25:51;;;;;;;0.82;0.82;;;;;;;3.48;90.96;99117.94;6206130;23;20024;-81
2023/04/29 05:28:18;;;;;;;0.80;0.80;;;;;;;3.60;91.09;99124.41;6206380;23;20490;-81
2023/04/29 05:30:46;;;;;;;0.90;0.90;;;;;;;3.57;90.25;99123.94;6205851;23;20107;-81
2023/04/29 05:33:13;;;;;;;0.80;0.80;;;;;;;3.50;89.58;99123.94;6155767;23;20029;-82
2023/04/29 05:35:42;;;;;;;0.90;0.90;;;;;;;3.61;89.74;99126.03;6206069;23;20028;-80
2023/04/29 05:38:09;;;;;;;0.88;0.88;;;;;;;3.63;89.71;99139.19;6205977;23;20025;-79
2023/04/29 05:40:39;;;;;;;0.80;0.80;;;;;;;3.67;89.05;99143.94;6206068;23;20025;-80
2023/04/29 05:43:27;;;;;;;0.80;0.80;;;;;;;3.49;87.94;99148.94;6206895;23;20031;-82
2023/04/29 05:45:55;;;;;;;0.77;0.77;;;;;;;3.44;87.76;99148.69;6205651;23;20099;-80
2023/04/29 05:48:26;;;;;;;0.80;0.80;;;;;;;3.66;88.00;99149.47;6207397;23;20075;-80
2023/04/29 05:50:53;;;;;;;0.90;0.90;;;;;;;3.68;87.29;99152.78;6205827;23;20452;-82
2023/04/29 05:53:25;;;;;;;0.80;0.80;;;;;;;3.79;87.53;99154.06;6206307;23;20618;-81
2023/04/29 05:55:52;;;;;;;0.77;0.77;;;;;;;3.93;87.30;99158.47;6157161;23;20513;-81
2023/04/29 05:58:22;;;;;;;0.82;0.82;;;;;;;3.95;86.95;99166.25;6206817;23;20036;-81
2023/04/29 06:00:51;;;;;;;0.80;0.80;;;;;;;3.96;86.24;99170.59;6210313;23;20500;-82
2023/04/29 06:03:22;;;;;;;0.80;0.80;;;;;;;4.03;86.36;99174.13;6183442;23;20032;-80
2023/04/29 06:06:12;;;;;;;0.88;0.88;;;;;;;4.33;86.62;99172.81;6209136;23;20531;-81
2023/04/29 06:08:56;;;;;;;0.80;0.80;;;;;;;4.48;86.53;99183.34;6185822;23;20027;-82
2023/04/29 06:11:27;;;;;;;0.80;0.80;;;;;;;4.49;86.36;99170.81;6209379;23;20032;-81
2023/04/29 06:13:56;;;;;;;0.70;0.70;;;;;;;4.61;86.60;99184.41;6183199;23;20066;-82
2023/04/29 06:16:26;;;;;;;0.80;0.80;;;;;;;4.83;86.05;99190.41;6182713;23;20115;-82
2023/04/29 06:18:57;;;;;;;0.80;0.80;;;;;;;4.87;84.86;99199.69;6182262;23;20063;-82
2023/04/29 06:21:27;;;;;;;0.77;0.77;;;;;;;5.07;84.66;99205.09;6209316;23;20639;-81
2023/04/29 06:23:55;;;;;;;0.80;0.80;;;;;;;5.33;84.12;99198.91;6208836;23;20044;-82
2023/04/29 06:26:22;;;;;;;0.80;0.80;;;;;;;5.55;82.38;99204.91;6182689;23;20020;-81
2023/04/29 06:28:56;;;;;;;0.80;0.80;;;;;;;5.75;81.17;99211.06;6183342;23;20103;-82
2023/04/29 06:31:26;;;;;;;0.80;0.80;;;;;;;5.79;79.13;99206.09;6211358;23;20530;-84
2023/04/29 06:37:35;;;;;;;0.90;0.90;;;;;;;6.35;77.79;99212.78;6120950;23;20116;-81
2023/04/29 06:43:10;;;;;;;0.90;0.90;;;;;;;6.42;75.63;99217.06;6120718;23;20025;-82
2023/04/29 06:46:10;;;;;;;0.80;0.80;;;;;;;6.19;74.78;99224.78;6120856;23;20054;-82
2023/04/29 06:48:50;;;;;;;0.70;0.70;;;;;;;6.23;75.44;99220.66;6075760;23;20473;-81
2023/04/29 06:54:03;;;;;;;0.77;0.77;;;;;;;6.77;75.49;99230.13;6119948;23;20127;-84
2023/04/29 06:56:32;;;;;;;0.80;0.80;;;;;;;6.88;74.28;99234.00;6072116;23;20108;-83
2023/04/29 06:59:20;;;;;;;0.80;0.80;;;;;;;7.04;74.70;99228.13;6119937;23;20126;-85
2023/04/29 07:01:47;;;;;;;0.80;0.80;;;;;;;7.37;72.00;99232.44;6072542;23;20517;-84
2023/04/29 07:04:19;;;;;;;0.80;0.80;;;;;;;7.03;69.03;99236.38;6121574;23;20155;-87
2023/04/29 07:06:47;;;;;;;0.80;0.80;;;;;;;6.85;70.56;99237.94;6096954;23;20113;-81
2023/04/29 07:09:15;;;;;;;0.70;0.70;;;;;;;7.03;70.13;99234.53;6121006;23;20702;-83
2023/04/29 07:11:45;;;;;;;0.77;0.77;;;;;;;6.71;69.97;99249.78;6137899;23;20558;-81
2023/04/29 07:14:14;;;;;;;0.80;0.80;;;;;;;6.83;71.75;99263.31;6206764;23;20127;-86
2023/04/29 07:16:44;;;;;;;0.80;0.80;;;;;;;7.31;70.76;99242.19;6217333;23;20025;-84
2023/04/29 07:19:12;;;;;;;0.70;0.70;;;;;;;7.12;68.60;99256.56;6211606;23;20416;-83
2023/04/29 07:21:39;;;;;;;0.80;0.80;;;;;;;6.90;70.68;99259.56;6213577;23;20090;-84
2023/04/29 07:24:19;;;;;;;0.80;0.80;;;;;;;7.13;70.61;99259.03;6210743;23;20020;-83
2023/04/29 07:26:47;;;;;;;0.80;0.80;;;;;;;7.14;69.59;99265.22;6165759;23;20115;-84
2023/04/29 07:29:16;;;;;;;0.80;0.80;;;;;;;7.02;68.02;99254.34;6211441;23;20020;-83
2023/04/29 07:31:43;;;;;;;0.80;0.80;;;;;;;6.89;68.32;99252.56;6211435;23;20086;-82
2023/04/29 07:34:11;;;;;;;0.80;0.80;;;;;;;7.14;68.98;99267.88;6211169;23;20070;-83
2023/04/29 07:36:38;;;;;;;0.90;0.90;;;;;;;7.53;67.53;99261.44;6212607;23;20515;-83
2023/04/29 07:39:08;;;;;;;0.90;0.90;;;;;;;8.03;67.06;99266.00;6187201;23;20087;-83
2023/04/29 07:41:40;;;;;;;0.90;0.90;;;;;;;8.21;66.80;99267.88;6211755;23;20043;-83
2023/04/29 07:44:09;;;;;;;0.90;0.90;;;;;;;8.74;65.51;99270.00;6186643;23;20048;-82
2023/04/29 07:46:36;;;;;;;0.80;0.80;;;;;;;8.55;62.46;99269.19;6186835;23;20024;-84
2023/04/29 07:49:07;;;;;;;0.70;0.70;;;;;;;8.00;65.06;99285.22;6211009;23;20411;-83
2023/04/29 07:51:35;;;;;;;0.70;0.70;;;;;;;7.80;65.29;99272.81;6185620;23;20024;-83
2023/04/29 07:54:05;;;;;;;0.80;0.80;;;;;;;7.49;65.74;99289.75;6210759;23;20024;-83
2023/04/29 07:56:32;;;;;;;0.80;0.80;;;;;;;7.22;66.32;99267.66;6186627;23;20025;-83
2023/04/29 07:59:02;;;;;;;0.73;0.73;;;;;;;7.62;66.31;99294.22;6160565;23;20067;-83
2023/04/29 08:01:31;;;;;;;0.82;0.82;;;;;;;7.92;65.57;99285.50;6210240;23;20470;-83
2023/04/29 08:04:01;;;;;;;0.70;0.70;;;;;;;7.98;65.58;99295.41;6186716;23;20024;-81
2023/04/29 08:06:33;;;;;;;0.70;0.70;;;;;;;7.60;65.55;99302.50;6186785;23;20116;-81
2023/04/29 08:09:04;;;;;;;0.70;0.70;;;;;;;7.77;65.03;99302.81;6210840;23;20364;-82
2023/04/29 08:11:32;;;;;;;0.80;0.80;;;;;;;7.76;65.05;99276.97;6210043;23;20078;-84
2023/04/29 08:13:59;;;;;;;0.80;0.80;;;;;;;8.57;63.46;99282.41;6187571;23;20029;-82
2023/04/29 08:16:28;;;;;;;0.95;0.95;;;;;;;8.81;60.93;99280.66;6211213;23;20413;-83
2023/04/29 08:18:56;;;;;;;0.73;0.73;;;;;;;9.43;60.06;99307.41;6210501;23;20024;-83
2023/04/29 08:21:24;;;;;;;1.00;1.00;;;;;;;10.49;57.30;99319.16;6161976;23;20406;-83
2023/04/29 08:23:52;;;;;;;0.90;0.90;;;;;;;11.19;55.95;99312.75;6209904;23;20024;-83
2023/04/29 08:26:19;;;;;;;0.70;0.70;;;;;;;11.35;55.29;99315.75;6209844;23;20025;-84
2023/04/29 08:28:49;;;;;;;0.90;0.90;;;;;;;10.68;55.06;99300.09;6211458;23;20055;-83
2023/04/29 08:31:20;;;;;;;0.70;0.70;;;;;;;11.47;54.92;99319.22;6211761;23;20020;-83
2023/04/29 08:33:48;;;;;;;0.70;0.70;;;;;;;11.86;52.95;99295.00;6210723;23;20020;-84
2023/04/29 08:36:18;;;;;;;0.60;0.60;;;;;;;10.96;52.52;99307.41;6185350;23;20032;-83
2023/04/29 08:38:45;;;;;;;0.90;0.90;;;;;;;10.52;54.28;99298.97;6212637;23;20029;-83
2023/04/29 08:41:15;;;;;;;0.60;0.60;;;;;;;10.21;55.61;99300.94;6210736;23;20076;-83
2023/04/29 08:43:50;;;;;;;1.00;1.00;;;;;;;10.93;55.12;99307.91;6212359;23;20020;-83
2023/04/29 08:46:18;;;;;;;1.00;1.00;;;;;;;11.85;51.63;99283.38;6209610;23;20030;-83
2023/04/29 08:48:51;;;;;;;1.00;1.00;;;;;;;12.73;50.63;99288.16;6211648;23;20071;-83
2023/04/29 08:51:19;;;;;;;0.60;0.60;;;;;;;12.98;49.80;99301.19;6210548;23;20048;-83
2023/04/29 08:53:46;;;;;;;0.60;0.60;;;;;;;12.76;48.21;99303.91;6211993;23;20479;-84
2023/04/29 08:56:20;;;;;;;0.60;0.60;;;;;;;11.52;49.26;99304.97;6211764;23;20024;-84
2023/04/29 08:58:57;;;;;;;1.00;1.00;;;;;;;11.80;47.27;99312.19;6212457;23;20518;-82
2023/04/29 09:01:27;;;;;;;0.95;0.95;;;;;;;12.44;45.75;99314.59;6210658;23;20035;-83
2023/04/29 09:04:07;;;;;;;0.60;0.60;;;;;;;11.75;47.59;99318.38;6211742;23;20056;-82
2023/04/29 09:06:37;;;;;;;0.60;0.60;;;;;;;11.83;48.43;99306.31;6209665;23;20021;-83
2023/04/29 09:11:58;;;;;;;0.60;0.60;;;;;;;13.05;42.52;99315.38;6209807;23;20090;-84
2023/04/29 09:14:27;;;;;;;0.50;0.50;;;;;;;11.30;45.93;99312.97;6212238;23;20536;-83
2023/04/29 09:16:58;;;;;;;0.60;0.60;;;;;;;10.37;49.28;99326.41;6210233;23;20514;-84
2023/04/29 09:19:33;;;;;;;0.60;0.60;;;;;;;9.98;51.13;99329.53;6210372;23;20456;-83
2023/04/29 09:22:20;;;;;;;0.70;0.70;;;;;;;9.65;50.89;99340.03;6212264;23;20020;-82
2023/04/29 09:24:50;;;;;;;0.60;0.60;;;;;;;9.54;52.25;99336.22;6210299;23;20020;-82
2023/04/29 09:27:30;;;;;;;1.10;1.10;;;;;;;12.18;47.18;99335.00;6209516;23;20460;-82
2023/04/29 09:30:00;;;;;;;0.70;0.70;;;;;;;13.04;44.64;99321.03;6209490;23;20027;-83
2023/04/29 09:32:34;;;;;;;1.00;1.00;;;;;;;13.21;45.15;99321.78;6211573;23;20028;-82
2023/04/29 09:35:24;;;;;;;1.00;1.00;;;;;;;13.93;44.13;99336.09;6210935;23;20111;-83
2023/04/29 09:41:16;;;;;;;0.60;0.60;;;;;;;13.84;41.05;99344.69;6212091;23;20020;-82
2023/04/29 09:43:43;;;;;;;0.90;0.90;;;;;;;13.52;42.46;99338.41;6212086;23;20025;-83
2023/04/29 09:46:15;;;;;;;1.00;1.00;;;;;;;13.84;41.06;99333.03;6213123;23;20020;-82
2023/04/29 09:49:00;;;;;;;0.63;0.63;;;;;;;14.72;40.83;99344.28;6214257;23;20452;-83
2023/04/29 09:51:27;;;;;;;1.00;1.00;;;;;;;16.11;37.32;99347.41;6213514;23;20139;-83
2023/04/29 09:53:54;;;;;;;1.00;1.00;;;;;;;16.18;34.50;99337.88;6212784;23;20055;-83
2023/04/29 09:56:22;;;;;;;1.00;1.00;;;;;;;16.35;33.62;99345.72;6213377;23;20333;-81
2023/04/29 09:59:09;;;;;;;0.70;0.70;;;;;;;15.03;35.86;99341.69;6213215;23;20024;-83
2023/04/29 10:01:36;;;;;;;0.50;0.50;;;;;;;14.53;36.83;99348.50;6214024;23;20035;-83
2023/04/29 10:04:07;;;;;;;0.50;0.50;;;;;;;13.71;39.27;99349.72;6210751;23;20031;-84
2023/04/29 10:06:40;;;;;;;0.50;0.50;;;;;;;13.08;41.24;99354.69;6212141;23;20055;-86
2023/04/29 10:09:08;;;;;;;0.50;0.50;;;;;;;12.74;42.55;99352.91;6213740;23;20025;-84
2023/04/29 10:11:35;;;;;;;0.50;0.50;;;;;;;12.18;42.14;99362.91;6213902;23;20025;-85
2023/04/29 10:14:05;;;;;;;0.50;0.50;;;;;;;11.76;42.65;99357.03;6188559;23;20103;-84
2023/04/29 10:16:33;;;;;;;0.60;0.60;;;;;;;11.78;43.84;99365.72;6215844;23;20020;-84
2023/04/29 10:19:05;;;;;;;0.90;0.90;;;;;;;12.43;43.12;99367.06;6212205;23;20035;-86
2023/04/29 10:21:32;;;;;;;0.50;0.50;;;;;;;13.16;40.00;99368.59;6189497;23;20031;-84
2023/04/29 10:24:01;;;;;;;0.50;0.50;;;;;;;12.90;41.52;99374.78;6186991;23;20387;-83
2023/04/29 10:26:28;;;;;;;0.60;0.60;;;;;;;12.84;41.88;99371.19;6187744;23;20031;-84
2023/04/29 10:28:56;;;;;;;0.60;0.60;;;;;;;12.64;40.95;99377.16;6214810;23;20051;-83
2023/04/29 10:31:26;;;;;;;0.60;0.60;;;;;;;12.39;41.59;99388.41;6215304;23;20150;-88
2023/04/29 10:33:55;;;;;;;0.52;0.52;;;;;;;12.31;41.58;99392.34;6189188;23;20054;-84
2023/04/29 10:36:26;;;;;;;0.60;0.60;;;;;;;12.03;41.87;99401.34;6193683;23;20024;-83
2023/04/29 10:38:57;;;;;;;0.60;0.60;;;;;;;11.85;41.82;99393.41;6215318;23;20367;-84
2023/04/29 10:41:41;;;;;;;0.60;0.60;;;;;;;11.54;40.94;99392.84;6163796;23;20106;-86
2023/04/29 10:44:09;;;;;;;0.60;0.60;;;;;;;11.71;41.68;99409.94;6167550;23;20029;-90
2023/04/29 10:46:37;;;;;;;0.60;0.60;;;;;;;12.12;40.97;99407.97;6191301;23;20116;-84
2023/04/29 10:49:06;;;;;;;0.60;0.60;;;;;;;11.96;40.79;99403.38;6187223;23;20401;-85
2023/04/29 10:51:34;;;;;;;0.80;0.80;;;;;;;12.57;40.86;99412.50;6187074;23;20123;-84
2023/04/29 10:54:12;;;;;;;0.70;0.70;;;;;;;13.39;39.78;99378.41;6186883;23;20043;-84
2023/04/29 10:56:49;;;;;;;0.60;0.60;;;;;;;13.77;39.62;99397.50;6161926;23;20024;-83
2023/04/29 10:59:35;;;;;;;0.70;0.70;;;;;;;13.67;39.77;99406.34;6191473;23;20048;-85
2023/04/29 11:02:06;;;;;;;0.75;0.75;;;;;;;13.56;39.53;99396.47;6213578;23;20039;-84
2023/04/29 11:05:07;;;;;;;0.90;0.90;;;;;;;14.48;37.49;99405.44;6214409;23;20059;-88
2023/04/29 11:07:35;;;;;;;0.90;0.90;;;;;;;15.14;36.67;99410.50;6214306;23;20020;-85
2023/04/29 11:10:35;;;;;;;0.80;0.80;;;;;;;16.63;33.83;99417.88;6146206;23;20574;-84
2023/04/29 11:13:20;;;;;;;1.10;1.10;;;;;;;18.25;32.56;99411.22;6165073;23;20056;-85
2023/04/29 11:15:50;;;;;;;0.80;0.80;;;;;;;17.75;31.51;99389.44;6186918;23;20020;-86
2023/04/29 11:18:18;;;;;;;0.70;0.70;;;;;;;17.63;31.58;99388.16;6219396;22;20266;-86
2023/04/29 11:21:03;;;;;;;1.00;1.00;;;;;;;19.13;29.68;99411.25;6244623;22;20059;-83
2023/04/29 11:23:36;;;;;;;0.70;0.70;;;;;;;19.77;28.39;99415.38;6215644;23;20407;-84
2023/04/29 11:26:04;;;;;;;0.60;0.60;;;;;;;18.86;29.14;99396.22;6241553;23;20107;-84
2023/04/29 11:28:51;;;;;;;0.50;0.50;;;;;;;17.09;31.57;99397.91;6242476;23;20028;-83
2023/04/29 11:31:32;;;;;;;0.50;0.50;;;;;;;16.14;33.03;99409.47;6243888;22;20463;-82
2023/04/29 11:34:00;;;;;;;0.50;0.50;;;;;;;15.51;33.41;99407.66;6242698;23;20337;-84
2023/04/29 11:36:46;;;;;;;0.50;0.50;;;;;;;14.81;33.96;99403.53;6243557;22;20028;-84
2023/04/29 11:39:35;;;;;;;0.40;0.40;;;;;;;14.20;35.37;99420.97;6241685;23;20462;-84
2023/04/29 11:42:05;;;;;;;0.50;0.50;;;;;;;13.69;35.29;99408.81;6243655;22;20020;-84
2023/04/29 11:44:34;;;;;;;0.50;0.50;;;;;;;13.50;35.90;99411.06;6241646;23;20352;-82
2023/04/29 11:47:05;;;;;;;0.60;0.60;;;;;;;13.29;35.75;99416.22;6243238;22;20103;-85
2023/04/29 11:49:34;;;;;;;0.52;0.52;;;;;;;13.11;36.69;99414.59;6241082;23;20403;-84
2023/04/29 11:52:01;;;;;;;0.50;0.50;;;;;;;13.02;36.81;99403.41;6242563;22;20020;-85
2023/04/29 11:54:28;;;;;;;0.60;0.60;;;;;;;13.00;36.90;99418.25;6243789;22;20027;-84
2023/04/29 11:56:59;;;;;;;0.50;0.50;;;;;;;13.00;37.61;99402.81;6221452;23;20028;-84
2023/04/29 11:59:26;;;;;;;0.57;0.57;;;;;;;13.10;37.04;99385.06;6249435;22;20479;-85
2023/04/29 12:01:54;;;;;;;0.60;0.60;;;;;;;14.24;35.52;99403.09;6245921;23;20020;-84
2023/04/29 12:04:21;;;;;;;0.50;0.50;;;;;;;14.51;35.25;99415.81;6219619;23;20395;-84
2023/04/29 12:06:53;;;;;;;1.10;1.10;;;;;;;17.52;31.34;99420.13;6244174;22;20047;-83
2023/04/29 12:09:22;;;;;;;1.00;1.00;;;;;;;19.77;27.86;99409.91;6240895;23;20028;-84
2023/04/29 12:11:50;;;;;;;0.90;0.90;;;;;;;20.76;26.59;99397.09;6242636;22;20030;-84
2023/04/29 12:14:17;;;;;;;0.90;0.90;;;;;;;22.24;25.32;99404.19;6243244;22;20019;-84